Terminal Aerodrome Forecast
Issued by NWS Wilmington, OH

Current Version | Previous Version | Graphics & Text | Print | Product List | Glossary On
Versions: 1 2 3 4 5 6 7 8 9 10 11 12 13 14 15 16 17 18 19 20
980
FTUS41 KILN 032145 AAA
TAFDAY
TAF AMD
KDAY 032145Z 0322/0418 25019G28KT P6SM SCT045
      TEMPO 0322/0324 25015G25KT OVC025
     FM040000 26016G23KT P6SM OVC018
     FM040300 26013KT P6SM OVC015
     FM041500 27010KT P6SM BKN025=

USA.gov is the U.S. government's official web portal to all federal, state and local government web resources and services.